createdAt,value
2023-01-15T00:02:07.395Z,3.63
2023-01-15T00:04:35.549Z,2.65
2023-01-15T00:07:02.550Z,1.92
2023-01-15T00:09:31.606Z,3.60
2023-01-15T00:11:58.675Z,4.50
2023-01-15T00:14:25.772Z,2.40
2023-01-15T00:16:53.443Z,3.72
2023-01-15T00:19:27.240Z,5.80
2023-01-15T00:21:54.395Z,2.22
2023-01-15T00:24:39.917Z,3.75
2023-01-15T00:27:28.006Z,3.63
2023-01-15T00:29:57.459Z,2.13
2023-01-15T00:32:27.813Z,2.25
2023-01-15T00:34:55.921Z,3.10
2023-01-15T00:37:22.855Z,4.43
2023-01-15T00:39:52.035Z,3.25
2023-01-15T00:42:21.335Z,1.27
2023-01-15T00:44:48.369Z,2.85
2023-01-15T00:47:17.583Z,2.50
2023-01-15T00:49:47.797Z,1.77
2023-01-15T00:52:16.830Z,1.88
2023-01-15T00:54:48.442Z,2.08
2023-01-15T00:57:17.610Z,1.40
2023-01-15T00:59:47.627Z,1.73
2023-01-15T01:02:14.796Z,2.67
2023-01-15T01:09:40.575Z,1.20
2023-01-15T01:12:07.858Z,1.52
2023-01-15T01:14:35.175Z,3.03
2023-01-15T01:17:04.434Z,1.77
2023-01-15T01:19:31.375Z,2.80
2023-01-15T01:21:58.486Z,3.70
2023-01-15T01:24:28.261Z,4.72
2023-01-15T01:26:55.941Z,1.52
2023-01-15T01:29:23.719Z,4.07
2023-01-15T01:31:53.107Z,4.18
2023-01-15T01:34:22.875Z,3.47
2023-01-15T01:36:49.794Z,5.90
2023-01-15T01:39:22.055Z,4.10
2023-01-15T01:41:51.599Z,3.65
2023-01-15T01:44:33.987Z,1.17
2023-01-15T01:47:09.322Z,1.10
2023-01-15T01:49:38.880Z,0.52
2023-01-15T01:52:15.625Z,0.85
2023-01-15T01:54:46.359Z,1.52
2023-01-15T01:57:20.054Z,1.38
2023-01-15T01:59:51.010Z,0.60
2023-01-15T02:02:22.161Z,0.88
2023-01-15T02:04:49.641Z,1.00
2023-01-15T02:07:17.201Z,1.58
2023-01-15T02:09:44.692Z,0.63
2023-01-15T02:12:24.939Z,1.27
2023-01-15T02:15:01.312Z,0.73
2023-01-15T02:17:39.469Z,1.67
2023-01-15T02:20:19.302Z,0.90
2023-01-15T02:23:23.425Z,0.60
2023-01-15T02:26:24.892Z,2.95
2023-01-15T02:28:57.591Z,0.68
2023-01-15T02:31:32.616Z,0.98
2023-01-15T02:34:09.621Z,1.30
2023-01-15T02:36:44.587Z,1.27
2023-01-15T02:39:23.785Z,0.60
2023-01-15T02:41:54.189Z,1.35
2023-01-15T02:44:26.437Z,0.50
2023-01-15T02:46:57.739Z,1.00
2023-01-15T02:49:27.061Z,1.33
2023-01-15T02:52:02.755Z,0.63
2023-01-15T02:54:37.280Z,1.60
2023-01-15T02:57:08.639Z,0.50
2023-01-15T02:59:40.633Z,1.02
2023-01-15T03:02:14.153Z,1.42
2023-01-15T03:04:56.573Z,0.70
2023-01-15T03:07:28.031Z,1.60
2023-01-15T03:09:56.834Z,1.02
2023-01-15T03:12:54.989Z,2.05
2023-01-15T03:15:46.028Z,0.50
2023-01-15T03:18:20.753Z,0.93
2023-01-15T03:20:54.724Z,0.77
2023-01-15T03:23:27.390Z,0.95
2023-01-15T03:25:54.919Z,1.55
2023-01-15T03:28:26.744Z,0.90
2023-01-15T03:30:58.407Z,1.58
2023-01-15T03:33:30.363Z,0.70
2023-01-15T03:36:00.712Z,0.70
2023-01-15T03:38:51.130Z,0.95
2023-01-15T03:41:55.289Z,0.70
2023-01-15T03:44:49.634Z,0.50
2023-01-15T03:47:27.953Z,0.50
2023-01-15T03:50:02.628Z,0.50
2023-01-15T03:53:03.203Z,1.15
2023-01-15T03:55:45.579Z,1.17
2023-01-15T03:58:45.250Z,0.77
2023-01-15T04:01:28.733Z,0.68
2023-01-15T04:03:59.795Z,0.70
2023-01-15T04:06:32.030Z,0.80
2023-01-15T04:09:04.870Z,1.58
2023-01-15T04:11:34.420Z,0.43
2023-01-15T04:14:06.722Z,0.30
2023-01-15T04:16:41.192Z,0.60
2023-01-15T04:21:43.405Z,0.57
2023-01-15T04:24:10.325Z,0.88
2023-01-15T04:26:39.879Z,0.60
2023-01-15T04:29:07.331Z,0.85
2023-01-15T04:31:36.171Z,0.73
2023-01-15T04:34:04.322Z,0.50
2023-01-15T04:36:36.914Z,1.17
2023-01-15T04:39:05.268Z,0.80
2023-01-15T04:41:50.707Z,10.98
2023-01-15T04:44:19.828Z,0.80
2023-01-15T04:46:48.004Z,0.40
2023-01-15T04:49:18.429Z,0.52
2023-01-15T04:51:48.067Z,2.03
2023-01-15T04:54:16.865Z,0.52
2023-01-15T04:56:50.523Z,1.95
2023-01-15T04:59:22.645Z,0.67
2023-01-15T05:02:02.616Z,0.50
2023-01-15T05:04:31.016Z,0.50
2023-01-15T05:06:58.031Z,0.50
2023-01-15T05:09:29.530Z,0.60
2023-01-15T05:11:59.093Z,1.20
2023-01-15T05:14:26.115Z,1.50
2023-01-15T05:16:53.096Z,0.57
2023-01-15T05:19:20.320Z,0.80
2023-01-15T05:21:49.530Z,0.70
2023-01-15T05:24:17.593Z,1.00
2023-01-15T05:26:45.392Z,0.85
2023-01-15T05:29:14.939Z,0.40
2023-01-15T05:31:44.988Z,0.30
2023-01-15T05:34:14.343Z,0.68
2023-01-15T05:36:41.615Z,0.73
2023-01-15T05:39:08.752Z,0.50
2023-01-15T05:41:50.988Z,1.05
2023-01-15T05:44:17.991Z,0.63
2023-01-15T05:46:46.189Z,1.25
2023-01-15T05:49:20.559Z,0.50
2023-01-15T05:51:48.250Z,0.75
2023-01-15T05:54:18.906Z,0.50
2023-01-15T05:56:46.401Z,0.43
2023-01-15T05:59:14.885Z,0.57
2023-01-15T06:01:44.791Z,0.43
2023-01-15T06:04:14.294Z,1.23
2023-01-15T06:06:43.244Z,0.45
2023-01-15T06:09:12.898Z,0.40
2023-01-15T06:11:45.902Z,0.68
2023-01-15T06:14:12.896Z,1.48
2023-01-15T06:16:43.830Z,1.23
2023-01-15T06:19:15.889Z,0.43
2023-01-15T06:21:43.209Z,0.50
2023-01-15T06:26:38.140Z,0.75
2023-01-15T06:29:09.594Z,1.35
2023-01-15T06:31:36.950Z,0.40
2023-01-15T06:34:04.054Z,0.38
2023-01-15T06:36:31.068Z,0.40
2023-01-15T06:39:05.188Z,1.20
2023-01-15T06:41:53.741Z,0.77
2023-01-15T06:44:39.117Z,0.40
2023-01-15T06:47:24.881Z,0.45
2023-01-15T06:49:57.697Z,0.25
2023-01-15T06:52:28.420Z,0.77
2023-01-15T06:55:05.191Z,0.90
2023-01-15T06:57:32.103Z,4.03
2023-01-15T06:59:59.048Z,3.15
2023-01-15T07:02:26.148Z,2.03
2023-01-15T07:04:53.239Z,1.45
2023-01-15T07:07:21.404Z,5.00
2023-01-15T07:09:48.377Z,1.35
2023-01-15T07:12:15.455Z,1.10
2023-01-15T07:14:42.466Z,0.70
2023-01-15T07:17:09.519Z,0.85
2023-01-15T07:19:37.101Z,0.90
2023-01-15T07:22:07.446Z,0.47
2023-01-15T07:24:34.597Z,1.05
2023-01-15T07:27:01.850Z,0.60
2023-01-15T07:29:31.776Z,0.50
2023-01-15T07:31:58.860Z,0.90
2023-01-15T07:34:25.855Z,1.00
2023-01-15T07:36:54.992Z,0.80
2023-01-15T07:39:24.755Z,0.60
2023-01-15T07:42:10.570Z,0.80
2023-01-15T07:44:56.117Z,1.40
2023-01-15T07:47:44.088Z,1.67
2023-01-15T07:50:22.939Z,2.83
2023-01-15T07:52:52.919Z,2.67
2023-01-15T07:55:20.488Z,1.48
2023-01-15T07:57:47.565Z,0.80
2023-01-15T08:00:23.847Z,3.20
2023-01-15T08:02:51.716Z,0.80
2023-01-15T08:05:21.633Z,0.75
2023-01-15T08:07:50.016Z,0.75
2023-01-15T08:10:17.192Z,0.80
2023-01-15T08:13:02.830Z,1.40
2023-01-15T08:15:38.192Z,1.13
2023-01-15T08:18:07.301Z,0.80
2023-01-15T08:20:37.692Z,0.60
2023-01-15T08:23:04.815Z,0.95
2023-01-15T08:25:40.275Z,1.52
2023-01-15T08:28:08.792Z,1.35
2023-01-15T08:30:37.103Z,1.40
2023-01-15T08:33:06.288Z,4.18
2023-01-15T08:35:36.126Z,2.05
2023-01-15T08:40:36.323Z,3.38
2023-01-15T08:43:05.738Z,3.92
2023-01-15T08:45:32.781Z,2.15
2023-01-15T08:48:00.504Z,5.03
2023-01-15T08:50:27.501Z,3.15
2023-01-15T08:52:54.529Z,3.25
2023-01-15T08:55:23.735Z,3.45
2023-01-15T08:57:51.824Z,6.22
2023-01-15T09:00:25.221Z,3.20
2023-01-15T09:02:57.559Z,3.30
2023-01-15T09:05:28.167Z,1.20
2023-01-15T09:07:57.399Z,1.85
2023-01-15T09:10:27.024Z,3.25
2023-01-15T09:12:58.348Z,3.38
2023-01-15T09:15:27.651Z,1.77
2023-01-15T09:17:56.507Z,2.10
2023-01-15T09:20:23.990Z,1.15
2023-01-15T09:22:51.327Z,2.03
2023-01-15T09:27:49.093Z,3.40
2023-01-15T09:30:23.134Z,2.13
2023-01-15T09:32:50.177Z,3.53
2023-01-15T09:37:44.541Z,1.50
2023-01-15T09:40:28.592Z,1.33
2023-01-15T09:43:05.005Z,1.58
2023-01-15T09:45:44.562Z,3.05
2023-01-15T09:48:37.407Z,3.13
2023-01-15T09:51:24.535Z,3.38
2023-01-15T09:54:19.086Z,1.60
2023-01-15T09:56:46.685Z,1.58
2023-01-15T09:59:28.446Z,1.10
2023-01-15T10:01:55.839Z,0.80
2023-01-15T10:04:38.416Z,1.67
2023-01-15T10:07:24.050Z,1.80
2023-01-15T10:09:59.518Z,1.67
2023-01-15T10:12:35.560Z,4.07
2023-01-15T10:15:33.792Z,4.47
2023-01-15T10:18:04.537Z,5.28
2023-01-15T10:20:39.270Z,9.38
2023-01-15T10:23:18.388Z,5.50
2023-01-15T10:25:51.948Z,2.47
2023-01-15T10:28:46.655Z,1.30
2023-01-15T10:31:20.734Z,3.00
2023-01-15T10:34:00.855Z,3.20
2023-01-15T10:36:52.120Z,2.45
2023-01-15T10:39:27.984Z,3.85
2023-01-15T10:44:43.804Z,2.22
2023-01-15T10:47:26.416Z,3.30
2023-01-15T10:49:57.949Z,5.10
2023-01-15T10:52:33.443Z,4.20
2023-01-15T10:55:27.875Z,3.15
2023-01-15T10:58:10.543Z,1.63
2023-01-15T11:00:40.528Z,2.42
2023-01-15T11:03:16.545Z,2.00
2023-01-15T11:05:46.773Z,2.33
2023-01-15T11:09:07.448Z,1.23
2023-01-15T11:11:51.501Z,1.92
2023-01-15T11:14:37.045Z,1.38
2023-01-15T11:17:33.263Z,1.73
2023-01-15T11:20:05.130Z,1.50
2023-01-15T11:22:38.470Z,3.15
2023-01-15T11:25:07.388Z,3.63
2023-01-15T11:27:38.045Z,3.17
2023-01-15T11:30:25.270Z,2.13
2023-01-15T11:33:04.141Z,3.78
2023-01-15T11:35:32.956Z,2.53
2023-01-15T11:38:15.970Z,4.68
2023-01-15T11:40:59.520Z,2.58
2023-01-15T11:43:47.936Z,5.30
2023-01-15T11:46:52.123Z,5.22
2023-01-15T11:49:40.046Z,6.03
2023-01-15T11:52:16.904Z,3.78
2023-01-15T11:54:48.165Z,2.42
2023-01-15T11:57:32.694Z,2.58
2023-01-15T12:00:04.343Z,2.20
2023-01-15T12:02:51.032Z,2.50
2023-01-15T12:05:36.859Z,2.00
2023-01-15T12:08:21.725Z,1.92
2023-01-15T12:11:27.011Z,3.08
2023-01-15T12:14:05.334Z,4.07
2023-01-15T12:16:45.560Z,2.63
2023-01-15T12:19:22.730Z,1.25
2023-01-15T12:24:46.316Z,1.10
2023-01-15T12:30:39.340Z,2.20
2023-01-15T12:33:20.905Z,4.97
2023-01-15T12:36:10.572Z,3.95
2023-01-15T12:38:59.089Z,3.60
2023-01-15T12:42:04.487Z,1.80
2023-01-15T12:45:08.036Z,4.80
2023-01-15T12:47:54.335Z,2.55
2023-01-15T12:50:39.411Z,3.33
2023-01-15T12:53:06.297Z,1.80
2023-01-15T12:55:45.152Z,2.92
2023-01-15T12:58:27.141Z,2.42
2023-01-15T13:01:05.776Z,1.02
2023-01-15T13:03:53.872Z,2.42
2023-01-15T13:06:28.486Z,2.28
2023-01-15T13:09:07.834Z,2.38
2023-01-15T13:14:01.823Z,2.00
2023-01-15T13:16:37.671Z,2.30
2023-01-15T13:19:35.007Z,1.75
2023-01-15T13:22:16.835Z,2.30
2023-01-15T13:25:13.661Z,1.38
2023-01-15T13:27:43.294Z,1.30
2023-01-15T13:30:40.944Z,1.60
2023-01-15T13:33:36.244Z,1.63
2023-01-15T13:36:12.020Z,5.38
2023-01-15T13:38:53.069Z,2.33
2023-01-15T13:41:44.439Z,2.70
2023-01-15T13:44:35.097Z,3.00
2023-01-15T13:47:12.640Z,3.70
2023-01-15T13:49:46.959Z,3.40
2023-01-15T13:52:24.626Z,2.65
2023-01-15T13:54:58.529Z,2.47
2023-01-15T13:57:36.387Z,4.30
2023-01-15T14:00:25.672Z,3.88
2023-01-15T14:02:54.928Z,3.97
2023-01-15T14:05:39.727Z,6.38
2023-01-15T14:08:16.745Z,6.05
2023-01-15T14:10:48.720Z,4.57
2023-01-15T14:13:44.870Z,2.45
2023-01-15T14:16:33.438Z,5.88
2023-01-15T14:19:20.559Z,5.15
2023-01-15T14:21:53.458Z,4.22
2023-01-15T14:24:51.731Z,2.83
2023-01-15T14:27:44.302Z,3.88
2023-01-15T14:30:47.475Z,2.17
2023-01-15T14:33:35.895Z,3.90
2023-01-15T14:36:16.098Z,2.65
2023-01-15T14:38:53.785Z,2.30
2023-01-15T14:41:30.652Z,1.92
2023-01-15T14:44:00.683Z,2.47
2023-01-15T14:46:35.221Z,2.60
2023-01-15T14:51:46.114Z,3.08
2023-01-15T14:54:19.924Z,3.00
2023-01-15T14:56:54.191Z,3.78
2023-01-15T14:59:44.511Z,2.92
2023-01-15T15:02:31.772Z,2.17
2023-01-15T15:05:00.588Z,3.90
2023-01-15T15:07:41.667Z,2.88
2023-01-15T15:10:36.189Z,2.20
2023-01-15T15:13:46.541Z,2.30
2023-01-15T15:16:24.713Z,3.38
2023-01-15T15:19:04.991Z,4.10
2023-01-15T15:21:37.670Z,2.45
2023-01-15T15:24:15.708Z,2.78
2023-01-15T15:26:44.811Z,3.13
2023-01-15T15:29:20.446Z,4.00
2023-01-15T15:31:53.613Z,4.43
2023-01-15T15:34:32.211Z,3.67
2023-01-15T15:37:05.964Z,3.70
2023-01-15T15:39:59.597Z,3.33
2023-01-15T15:42:46.742Z,5.15
2023-01-15T15:45:52.419Z,4.60
2023-01-15T15:48:45.577Z,5.83
2023-01-15T15:51:36.858Z,1.52
2023-01-15T15:54:30.720Z,3.83
2023-01-15T15:57:09.657Z,4.55
2023-01-15T15:59:45.261Z,6.93
2023-01-15T16:02:18.586Z,4.40
2023-01-15T16:04:58.120Z,25.83
2023-01-15T16:07:34.777Z,5.32
2023-01-15T16:10:15.406Z,3.00
2023-01-15T16:12:46.399Z,4.47
2023-01-15T16:15:41.061Z,3.65
2023-01-15T16:18:22.744Z,4.80
2023-01-15T16:20:50.005Z,5.63
2023-01-15T16:23:22.097Z,2.80
2023-01-15T16:26:00.838Z,3.22
2023-01-15T16:28:40.237Z,2.92
2023-01-15T16:31:08.560Z,5.90
2023-01-15T16:33:40.415Z,8.18
2023-01-15T16:36:12.318Z,4.70
2023-01-15T16:38:47.423Z,3.90
2023-01-15T16:41:28.428Z,3.58
2023-01-15T16:44:00.207Z,5.90
2023-01-15T16:46:32.026Z,4.55
2023-01-15T16:49:22.317Z,5.15
2023-01-15T16:51:54.221Z,7.53
2023-01-15T16:54:30.419Z,3.75
2023-01-15T16:57:01.542Z,6.13
2023-01-15T16:59:28.500Z,5.60
2023-01-15T17:02:02.611Z,4.88
2023-01-15T17:04:37.260Z,6.85
2023-01-15T17:07:05.699Z,5.30
2023-01-15T17:09:37.863Z,7.25
2023-01-15T17:12:15.515Z,9.75
2023-01-15T17:14:42.575Z,5.10
2023-01-15T17:17:22.166Z,5.15
2023-01-15T17:19:50.548Z,7.25
2023-01-15T17:22:28.168Z,4.10
2023-01-15T17:25:00.605Z,6.28
2023-01-15T17:27:29.776Z,4.60
2023-01-15T17:29:57.101Z,5.43
2023-01-15T17:34:54.084Z,4.50
2023-01-15T17:37:23.220Z,4.28
2023-01-15T17:39:52.848Z,4.10
2023-01-15T17:42:28.184Z,3.55
2023-01-15T17:44:55.184Z,4.90
2023-01-15T17:47:22.108Z,5.00
2023-01-15T17:49:49.377Z,4.75
2023-01-15T17:52:20.617Z,5.15
2023-01-15T17:55:06.206Z,3.83
2023-01-15T17:57:51.764Z,5.65
2023-01-15T18:00:37.747Z,6.28
2023-01-15T18:03:23.313Z,3.40
2023-01-15T18:05:57.646Z,5.10
2023-01-15T18:08:24.666Z,4.80
2023-01-15T18:10:51.885Z,5.20
2023-01-15T18:13:18.959Z,5.00
2023-01-15T18:15:48.254Z,7.35
2023-01-15T18:18:17.229Z,3.90
2023-01-15T18:20:46.916Z,6.40
2023-01-15T18:23:13.896Z,4.88
2023-01-15T18:25:46.064Z,9.23
2023-01-15T18:28:13.864Z,5.43
2023-01-15T18:30:41.411Z,6.03
2023-01-15T18:33:08.366Z,5.20
2023-01-15T18:35:37.999Z,5.90
2023-01-15T18:38:07.450Z,5.43
2023-01-15T18:40:35.037Z,6.43
2023-01-15T18:43:20.358Z,4.22
2023-01-15T18:46:06.833Z,8.00
2023-01-15T18:48:34.340Z,4.38
2023-01-15T18:51:11.001Z,9.10
2023-01-15T18:53:49.052Z,5.95
2023-01-15T18:56:36.067Z,7.85
2023-01-15T19:01:30.030Z,6.25
2023-01-15T19:03:58.891Z,9.30
2023-01-15T19:06:28.613Z,5.82
2023-01-15T19:10:28.491Z,4.85
2023-01-15T19:13:02.132Z,5.68
2023-01-15T19:15:50.530Z,6.10
2023-01-15T19:18:37.712Z,6.20
2023-01-15T19:21:08.944Z,8.45
2023-01-15T19:23:36.008Z,5.38
2023-01-15T19:26:05.437Z,5.90
2023-01-15T19:28:33.503Z,7.53
2023-01-15T19:31:19.300Z,4.63
2023-01-15T19:33:46.636Z,4.18
2023-01-15T19:36:14.026Z,5.32
2023-01-15T19:41:31.512Z,10.25
2023-01-15T19:44:17.143Z,5.07
2023-01-15T19:47:04.135Z,5.95
2023-01-15T19:49:55.171Z,5.80
2023-01-15T19:52:35.116Z,4.40
2023-01-15T19:55:15.009Z,6.38
2023-01-15T19:57:44.635Z,4.53
2023-01-15T20:00:19.443Z,3.85
2023-01-15T20:02:49.420Z,5.45
2023-01-15T20:05:17.701Z,12.20
2023-01-15T20:07:47.317Z,8.18
2023-01-15T20:13:01.935Z,8.23
2023-01-15T20:15:32.972Z,4.32
2023-01-15T20:18:02.516Z,6.38
2023-01-15T20:20:29.847Z,5.43
2023-01-15T20:25:27.510Z,7.55
2023-01-15T20:27:55.923Z,4.60
2023-01-15T20:30:24.154Z,5.65
2023-01-15T20:32:55.152Z,5.05
2023-01-15T20:35:27.379Z,5.28
2023-01-15T20:37:57.325Z,4.07
2023-01-15T20:40:25.732Z,6.53
2023-01-15T20:43:13.316Z,3.13
2023-01-15T20:45:43.727Z,6.13
2023-01-15T20:48:13.566Z,4.90
2023-01-15T20:51:01.346Z,6.60
2023-01-15T20:53:33.855Z,6.15
2023-01-15T20:56:04.474Z,5.13
2023-01-15T20:58:31.851Z,7.47
2023-01-15T21:01:06.441Z,9.07
2023-01-15T21:03:33.988Z,7.97
2023-01-15T21:08:33.620Z,4.00
2023-01-15T21:11:01.487Z,4.05
2023-01-15T21:13:28.974Z,4.22
2023-01-15T21:18:29.433Z,4.15
2023-01-15T21:20:57.283Z,3.83
2023-01-15T21:23:27.055Z,3.95
2023-01-15T21:26:03.919Z,6.70
2023-01-15T21:31:04.196Z,5.85
2023-01-15T21:33:31.741Z,7.30
2023-01-15T21:36:04.647Z,3.78
2023-01-15T21:38:36.779Z,4.10
2023-01-15T21:41:14.990Z,8.30
2023-01-15T21:44:02.400Z,3.53
2023-01-15T21:46:29.867Z,7.15
2023-01-15T21:48:58.359Z,5.32
2023-01-15T21:51:28.328Z,9.18
2023-01-15T21:54:00.197Z,5.82
2023-01-15T21:56:30.505Z,5.72
2023-01-15T21:58:57.904Z,7.50
2023-01-15T22:03:56.059Z,7.93
2023-01-15T22:06:25.653Z,4.97
2023-01-15T22:08:57.635Z,8.23
2023-01-15T22:11:26.008Z,8.35
2023-01-15T22:13:53.400Z,3.20
2023-01-15T22:16:48.459Z,5.40
2023-01-15T22:19:34.876Z,8.82
2023-01-15T22:22:09.001Z,9.38
2023-01-15T22:24:40.555Z,7.15
2023-01-15T22:27:12.962Z,6.35
2023-01-15T22:29:41.398Z,4.63
2023-01-15T22:32:10.801Z,7.53
2023-01-15T22:34:38.151Z,5.32
2023-01-15T22:42:18.664Z,5.10
2023-01-15T22:44:49.299Z,4.72
2023-01-15T22:47:18.056Z,5.22
2023-01-15T22:49:50.912Z,5.28
2023-01-15T22:52:41.547Z,2.80
2023-01-15T22:55:10.016Z,4.85
2023-01-15T22:57:37.768Z,5.15
2023-01-15T23:00:06.931Z,6.38
2023-01-15T23:02:53.875Z,5.35
2023-01-15T23:07:49.311Z,6.40
2023-01-15T23:12:47.290Z,5.32
2023-01-15T23:15:16.682Z,7.65
2023-01-15T23:17:46.585Z,6.75
2023-01-15T23:20:13.956Z,7.50
2023-01-15T23:27:36.688Z,6.28
2023-01-15T23:30:04.591Z,4.45
2023-01-15T23:32:35.370Z,4.38
2023-01-15T23:35:02.510Z,5.75
2023-01-15T23:37:32.613Z,5.47
2023-01-15T23:39:59.886Z,6.40
2023-01-15T23:42:45.647Z,7.55
2023-01-15T23:45:31.442Z,4.60
2023-01-15T23:48:01.418Z,5.45
2023-01-15T23:50:30.534Z,6.15
2023-01-15T23:52:57.695Z,6.25
2023-01-15T23:55:26.944Z,5.97
2023-01-15T23:57:54.025Z,5.88
